createdAt,value
2017-11-15T00:00:34.614Z,97883.73
2017-11-15T00:03:00.837Z,97890.84
2017-11-15T00:05:27.494Z,97887.72
2017-11-15T00:07:53.698Z,97896.73
2017-11-15T00:10:19.889Z,97896.56
2017-11-15T00:12:46.391Z,97887.95
2017-11-15T00:15:12.657Z,97885.62
2017-11-15T00:17:38.806Z,97868.42
2017-11-15T00:20:05.262Z,97870.59
2017-11-15T00:22:36.493Z,97870.80
2017-11-15T00:25:13.344Z,97871.55
2017-11-15T00:27:39.507Z,97872.63
2017-11-15T00:30:05.697Z,97878.19
2017-11-15T00:32:31.931Z,97882.42
2017-11-15T00:34:58.061Z,97880.16
2017-11-15T00:37:24.578Z,97875.27
2017-11-15T00:39:50.692Z,97869.62
2017-11-15T00:42:16.856Z,97873.76
2017-11-15T00:44:43.021Z,97869.84
2017-11-15T00:47:09.262Z,97865.66
2017-11-15T00:49:35.829Z,97870.27
2017-11-15T00:52:02.073Z,97864.83
2017-11-15T00:54:28.249Z,97866.21
2017-11-15T00:56:54.440Z,97865.10
2017-11-15T00:59:20.591Z,97863.00
2017-11-15T01:01:47.044Z,97869.80
2017-11-15T01:04:13.128Z,97868.87
2017-11-15T01:06:39.279Z,97877.23
2017-11-15T01:09:05.757Z,97870.44
2017-11-15T01:11:32.130Z,97866.67
2017-11-15T01:13:58.255Z,97861.74
2017-11-15T01:16:24.869Z,97866.64
2017-11-15T01:18:50.917Z,97864.43
2017-11-15T01:21:17.035Z,97864.23
2017-11-15T01:23:43.298Z,97865.47
2017-11-15T01:26:09.484Z,97873.13
2017-11-15T01:28:36.037Z,97875.38
2017-11-15T01:31:02.106Z,97874.98
2017-11-15T01:33:28.226Z,97868.94
2017-11-15T01:35:54.368Z,97870.52
2017-11-15T01:38:20.509Z,97866.41
2017-11-15T01:40:46.958Z,97864.94
2017-11-15T01:43:13.232Z,97861.74
2017-11-15T01:45:39.412Z,97865.42
2017-11-15T01:48:05.966Z,97864.47
2017-11-15T01:50:32.057Z,97870.24
2017-11-15T01:52:58.241Z,97869.10
2017-11-15T01:55:35.325Z,97857.20
2017-11-15T01:58:01.435Z,97855.27
2017-11-15T02:00:40.588Z,97860.13
2017-11-15T02:03:06.705Z,97855.55
2017-11-15T02:05:32.835Z,97858.31
2017-11-15T02:07:58.970Z,97861.28
2017-11-15T02:10:25.079Z,97862.03
2017-11-15T02:12:51.578Z,97859.41
2017-11-15T02:15:17.720Z,97861.71
2017-11-15T02:17:43.852Z,97861.39
2017-11-15T02:20:09.889Z,97863.88
2017-11-15T02:22:36.074Z,97864.98
2017-11-15T02:25:02.552Z,97866.02
2017-11-15T02:27:28.643Z,97858.66
2017-11-15T02:29:55.036Z,97859.84
2017-11-15T02:32:21.276Z,97855.78
2017-11-15T02:34:47.368Z,97851.43
2017-11-15T02:37:13.837Z,97846.96
2017-11-15T02:39:39.948Z,97839.30
2017-11-15T02:42:06.023Z,97848.82
2017-11-15T02:44:32.227Z,97843.80
2017-11-15T02:46:58.328Z,97849.02
2017-11-15T02:49:24.786Z,97840.12
2017-11-15T02:51:50.926Z,97849.02
2017-11-15T02:54:17.016Z,97833.61
2017-11-15T02:56:43.418Z,97831.48
2017-11-15T02:59:09.536Z,97831.68
2017-11-15T03:01:35.935Z,97818.75
2017-11-15T03:04:02.068Z,97824.88
2017-11-15T03:06:28.166Z,97829.27
2017-11-15T03:08:54.535Z,97831.32
2017-11-15T03:11:20.603Z,97837.56
2017-11-15T03:13:46.729Z,97829.11
2017-11-15T03:16:12.848Z,97822.36
2017-11-15T03:18:39.034Z,97828.44
2017-11-15T03:21:11.567Z,97832.31
2017-11-15T03:23:37.992Z,97833.38
2017-11-15T03:26:04.455Z,97838.03
2017-11-15T03:28:30.931Z,97839.07
2017-11-15T03:30:57.096Z,97839.11
2017-11-15T03:33:23.138Z,97836.55
2017-11-15T03:35:49.296Z,97837.84
2017-11-15T03:38:15.407Z,97843.41
2017-11-15T03:40:41.858Z,97841.98
2017-11-15T03:43:08.044Z,97849.69
2017-11-15T03:45:34.486Z,97840.03
2017-11-15T03:48:00.995Z,97838.27
2017-11-15T03:50:27.252Z,97836.56
2017-11-15T03:52:53.478Z,97843.43
2017-11-15T03:55:19.615Z,97847.70
2017-11-15T03:57:45.750Z,97844.90
2017-11-15T04:00:12.231Z,97845.89
2017-11-15T04:02:38.412Z,97844.18
2017-11-15T04:05:04.752Z,97845.02
2017-11-15T04:07:30.872Z,97846.64
2017-11-15T04:09:57.090Z,97855.52
2017-11-15T04:12:23.708Z,97846.31
2017-11-15T04:14:49.840Z,97852.14
2017-11-15T04:17:16.152Z,97846.55
2017-11-15T04:19:42.643Z,97848.16
2017-11-15T04:22:08.789Z,97843.18
2017-11-15T04:24:34.893Z,97843.17
2017-11-15T04:27:01.534Z,97850.11
2017-11-15T04:29:27.945Z,97852.30
2017-11-15T04:31:54.097Z,97853.09
2017-11-15T04:34:20.621Z,97857.63
2017-11-15T04:36:46.770Z,97859.45
2017-11-15T04:39:12.931Z,97849.16
2017-11-15T04:41:39.072Z,97838.36
2017-11-15T04:44:05.197Z,97850.55
2017-11-15T04:46:31.960Z,97844.43
2017-11-15T04:48:58.099Z,97849.55
2017-11-15T04:51:24.221Z,97852.82
2017-11-15T04:53:50.407Z,97852.88
2017-11-15T04:56:16.726Z,97855.59
2017-11-15T04:58:43.331Z,97862.80
2017-11-15T05:01:09.940Z,97851.19
2017-11-15T05:03:36.032Z,97856.41
2017-11-15T05:06:03.121Z,97855.95
2017-11-15T05:08:29.306Z,97854.72
2017-11-15T05:10:55.871Z,97853.94
2017-11-15T05:13:22.055Z,97865.80
2017-11-15T05:15:48.218Z,97865.98
2017-11-15T05:18:18.009Z,97860.60
2017-11-15T05:20:44.123Z,97870.12
2017-11-15T05:23:10.716Z,97866.53
2017-11-15T05:25:36.818Z,97867.95
2017-11-15T05:28:02.910Z,97873.75
2017-11-15T05:30:29.026Z,97883.36
2017-11-15T05:32:55.328Z,97882.97
2017-11-15T05:35:21.824Z,97879.52
2017-11-15T05:37:48.029Z,97883.06
2017-11-15T05:40:14.133Z,97884.27
2017-11-15T05:42:40.705Z,97886.27
2017-11-15T05:45:06.932Z,97885.58
2017-11-15T05:47:33.036Z,97889.15
2017-11-15T05:49:59.246Z,97897.25
2017-11-15T05:52:25.673Z,97891.31
2017-11-15T05:54:52.455Z,97892.65
2017-11-15T05:57:18.559Z,97882.91
2017-11-15T05:59:44.705Z,97884.45
2017-11-15T06:02:10.889Z,97887.10
2017-11-15T06:04:37.016Z,97895.09
2017-11-15T06:07:03.517Z,97901.32
2017-11-15T06:09:29.667Z,97901.89
2017-11-15T06:11:55.776Z,97904.61
2017-11-15T06:14:21.953Z,97903.83
2017-11-15T06:16:48.245Z,97900.98
2017-11-15T06:19:14.928Z,97904.84
2017-11-15T06:21:40.945Z,97908.17
2017-11-15T06:24:07.124Z,97906.86
2017-11-15T06:26:33.233Z,97910.72
2017-11-15T06:28:59.320Z,97916.00
2017-11-15T06:31:25.824Z,97920.45
2017-11-15T06:33:51.894Z,97926.58
2017-11-15T06:36:18.155Z,97920.13
2017-11-15T06:38:44.544Z,97923.47
2017-11-15T06:41:12.900Z,97925.28
2017-11-15T06:43:39.008Z,97921.59
2017-11-15T06:46:05.446Z,97928.16
2017-11-15T06:48:31.572Z,97932.86
2017-11-15T06:50:58.541Z,97935.98
2017-11-15T06:53:24.935Z,97943.45
2017-11-15T06:55:51.084Z,97946.53
2017-11-15T06:58:17.168Z,97933.51
2017-11-15T07:00:43.321Z,97938.92
2017-11-15T07:03:09.476Z,97942.20
2017-11-15T07:05:35.610Z,97939.94
2017-11-15T07:08:01.781Z,97941.48
2017-11-15T07:10:28.339Z,97942.05
2017-11-15T07:12:54.480Z,97940.73
2017-11-15T07:15:20.580Z,97946.23
2017-11-15T07:17:46.678Z,97951.41
2017-11-15T07:20:12.765Z,97959.66
2017-11-15T07:22:38.854Z,97961.48
2017-11-15T07:25:05.008Z,97958.59
2017-11-15T07:27:31.108Z,97967.37
2017-11-15T07:29:57.375Z,97962.90
2017-11-15T07:32:23.719Z,97973.60
2017-11-15T07:34:49.800Z,97964.71
2017-11-15T07:37:16.076Z,97972.30
2017-11-15T07:39:42.529Z,97973.37
2017-11-15T07:42:08.611Z,97972.45
2017-11-15T07:44:34.744Z,97973.98
2017-11-15T07:47:00.809Z,97979.36
2017-11-15T07:49:27.065Z,97986.39
2017-11-15T07:51:53.170Z,97979.08
2017-11-15T07:54:19.276Z,97982.33
2017-11-15T07:56:45.379Z,97983.13
2017-11-15T07:59:11.444Z,97979.20
2017-11-15T08:01:37.600Z,97983.45
2017-11-15T08:04:04.012Z,97982.25
2017-11-15T08:06:30.074Z,97975.14
2017-11-15T08:08:56.218Z,97976.64
2017-11-15T08:11:22.300Z,97978.30
2017-11-15T08:13:48.421Z,97974.34
2017-11-15T08:16:14.525Z,97971.95
2017-11-15T08:18:40.628Z,97974.34
2017-11-15T08:21:06.728Z,97977.84
2017-11-15T08:23:32.820Z,97981.69
2017-11-15T08:25:58.923Z,97972.34
2017-11-15T08:28:25.057Z,97972.02
2017-11-15T08:30:51.129Z,97977.27
2017-11-15T08:33:17.217Z,97980.39
2017-11-15T08:35:43.437Z,97979.53
2017-11-15T08:38:09.544Z,97980.78
2017-11-15T08:40:35.606Z,97975.64
2017-11-15T08:43:01.725Z,97979.27
2017-11-15T08:45:27.830Z,97979.22
2017-11-15T08:47:53.931Z,97979.77
2017-11-15T08:50:20.021Z,97973.40
2017-11-15T08:52:46.024Z,97977.16
2017-11-15T08:55:12.159Z,97972.15
2017-11-15T08:57:38.272Z,97980.58
2017-11-15T09:00:04.668Z,97973.89
2017-11-15T09:02:31.027Z,97976.95
2017-11-15T09:04:57.171Z,97971.64
2017-11-15T09:07:23.413Z,97973.80
2017-11-15T09:09:49.536Z,97974.03
2017-11-15T09:12:15.688Z,97978.11
2017-11-15T09:14:42.009Z,97979.53
2017-11-15T09:17:08.109Z,97974.85
2017-11-15T09:19:34.265Z,97971.66
2017-11-15T09:22:00.364Z,97978.49
2017-11-15T09:24:26.456Z,97979.16
2017-11-15T09:26:52.564Z,97981.59
2017-11-15T09:29:18.664Z,97973.81
2017-11-15T09:31:44.731Z,97979.19
2017-11-15T09:34:11.168Z,97970.69
2017-11-15T09:36:37.265Z,97966.14
2017-11-15T09:39:03.378Z,97966.86
2017-11-15T09:41:29.516Z,97970.47
2017-11-15T09:43:55.609Z,97972.64
2017-11-15T09:46:21.923Z,97973.59
2017-11-15T09:48:48.073Z,97972.41
2017-11-15T09:51:14.172Z,97967.27
2017-11-15T09:53:40.297Z,97970.74
2017-11-15T09:56:06.504Z,97968.09
2017-11-15T09:58:32.635Z,97971.62
2017-11-15T10:00:58.740Z,97970.71
2017-11-15T10:03:24.845Z,97968.85
2017-11-15T10:05:51.033Z,97962.16
2017-11-15T10:08:17.148Z,97966.51
2017-11-15T10:10:43.335Z,97965.16
2017-11-15T10:13:09.534Z,97966.31
2017-11-15T10:15:35.676Z,97966.51
2017-11-15T10:18:01.811Z,97963.70
2017-11-15T10:20:27.897Z,97967.45
2017-11-15T10:22:54.079Z,97964.22
2017-11-15T10:25:20.231Z,97964.97
2017-11-15T10:27:46.344Z,97959.55
2017-11-15T10:30:12.445Z,97953.74
2017-11-15T10:32:38.564Z,97948.57
2017-11-15T10:35:04.959Z,97951.25
2017-11-15T10:37:31.196Z,97944.08
2017-11-15T10:39:57.305Z,97936.65
2017-11-15T10:42:23.439Z,97934.76
2017-11-15T10:44:49.580Z,97929.96
2017-11-15T10:47:15.746Z,97931.75
2017-11-15T10:49:41.882Z,97928.83
2017-11-15T10:52:07.987Z,97933.36
2017-11-15T10:54:34.132Z,97924.39
2017-11-15T10:57:00.261Z,97926.78
2017-11-15T10:59:26.390Z,97920.20
2017-11-15T11:01:52.569Z,97923.88
2017-11-15T11:04:18.638Z,97918.69
2017-11-15T11:06:44.721Z,97917.23
2017-11-15T11:09:10.854Z,97905.58
2017-11-15T11:11:36.969Z,97907.87
2017-11-15T11:14:03.080Z,97905.00
2017-11-15T11:16:29.198Z,97898.03
2017-11-15T11:18:55.389Z,97898.17
2017-11-15T11:21:21.731Z,97904.87
2017-11-15T11:23:47.897Z,97896.91
2017-11-15T11:26:14.052Z,97904.30
2017-11-15T11:28:40.159Z,97902.61
2017-11-15T11:31:06.837Z,97892.45
2017-11-15T11:33:32.932Z,97898.89
2017-11-15T11:35:59.064Z,97892.33
2017-11-15T11:38:25.222Z,97891.98
2017-11-15T11:40:51.548Z,97888.11
2017-11-15T11:43:17.640Z,97892.11
2017-11-15T11:45:43.808Z,97891.02
2017-11-15T11:48:10.031Z,97885.39
2017-11-15T11:50:36.622Z,97891.22
2017-11-15T11:53:02.740Z,97879.22
2017-11-15T11:55:29.564Z,97877.37
2017-11-15T11:57:55.691Z,97877.52
2017-11-15T12:00:21.835Z,97877.98
2017-11-15T12:02:48.067Z,97875.44
2017-11-15T12:05:14.219Z,97868.13
2017-11-15T12:07:40.303Z,97866.02
2017-11-15T12:10:06.615Z,97854.11
2017-11-15T12:12:32.878Z,97857.75
2017-11-15T12:14:59.095Z,97849.77
2017-11-15T12:17:25.194Z,97848.55
2017-11-15T12:19:51.301Z,97846.56
2017-11-15T12:22:17.550Z,97850.45
2017-11-15T12:24:43.691Z,97842.16
2017-11-15T12:27:09.821Z,97843.61
2017-11-15T12:29:35.864Z,97843.80
2017-11-15T12:32:02.032Z,97843.14
2017-11-15T12:34:28.182Z,97841.33
2017-11-15T12:36:54.275Z,97833.73
2017-11-15T12:39:20.392Z,97830.82
2017-11-15T12:41:46.510Z,97826.88
2017-11-15T12:44:12.782Z,97825.05
2017-11-15T12:46:38.895Z,97821.12
2017-11-15T12:49:05.004Z,97826.52
2017-11-15T12:51:31.404Z,97823.27
2017-11-15T12:53:57.557Z,97823.80
2017-11-15T12:56:23.673Z,97823.48
2017-11-15T12:58:49.830Z,97831.47
2017-11-15T13:01:15.944Z,97824.44
2017-11-15T13:03:42.035Z,97827.37
2017-11-15T13:06:08.739Z,97823.92
2017-11-15T13:08:35.771Z,97820.50
2017-11-15T13:11:01.928Z,97823.31
2017-11-15T13:13:28.043Z,97814.75
2017-11-15T13:15:54.371Z,97817.60
2017-11-15T13:18:20.762Z,97814.50
2017-11-15T13:20:46.865Z,97806.10
2017-11-15T13:23:13.212Z,97807.09
2017-11-15T13:25:39.318Z,97802.73
2017-11-15T13:28:05.468Z,97806.34
2017-11-15T13:30:31.745Z,97812.13
2017-11-15T13:32:57.855Z,97806.87
2017-11-15T13:35:23.989Z,97811.73
2017-11-15T13:37:50.347Z,97812.27
2017-11-15T13:40:16.511Z,97815.27
2017-11-15T13:42:42.635Z,97803.89
2017-11-15T13:45:09.109Z,97813.14
2017-11-15T13:47:35.279Z,97819.60
2017-11-15T13:50:01.426Z,97817.90
2017-11-15T13:52:27.592Z,97816.86
2017-11-15T13:54:53.845Z,97818.09
2017-11-15T13:57:20.239Z,97819.96
2017-11-15T13:59:46.368Z,97820.27
2017-11-15T14:02:12.432Z,97812.29
2017-11-15T14:04:38.562Z,97814.56
2017-11-15T14:07:04.740Z,97816.78
2017-11-15T14:09:30.917Z,97815.41
2017-11-15T14:11:57.091Z,97812.81
2017-11-15T14:14:23.333Z,97819.73
2017-11-15T14:16:49.661Z,97816.47
2017-11-15T14:19:15.950Z,97821.27
2017-11-15T14:21:42.061Z,97822.44
2017-11-15T14:24:08.178Z,97827.48
2017-11-15T14:26:34.713Z,97825.22
2017-11-15T14:29:00.907Z,97824.17
2017-11-15T14:31:27.150Z,97830.55
2017-11-15T14:33:53.497Z,97820.25
2017-11-15T14:36:19.645Z,97820.59
2017-11-15T14:38:45.908Z,97816.02
2017-11-15T14:41:12.121Z,97819.84
2017-11-15T14:43:38.305Z,97818.76
2017-11-15T14:46:04.461Z,97821.69
2017-11-15T14:48:30.683Z,97822.88
2017-11-15T14:50:56.886Z,97820.09
2017-11-15T14:53:23.137Z,97822.08
2017-11-15T14:55:49.363Z,97822.59
2017-11-15T14:58:15.785Z,97824.86
2017-11-15T15:00:42.014Z,97823.73
2017-11-15T15:03:08.199Z,97818.05
2017-11-15T15:05:34.323Z,97816.73
2017-11-15T15:08:00.586Z,97824.53
2017-11-15T15:10:26.718Z,97820.70
2017-11-15T15:12:53.090Z,97821.97
2017-11-15T15:15:19.391Z,97826.63
2017-11-15T15:17:45.659Z,97823.63
2017-11-15T15:20:11.934Z,97827.52
2017-11-15T15:22:38.130Z,97826.88
2017-11-15T15:25:04.640Z,97809.53
2017-11-15T15:27:30.934Z,97822.34
2017-11-15T15:29:57.120Z,97817.23
2017-11-15T15:32:23.249Z,97821.65
2017-11-15T15:34:49.364Z,97823.23
2017-11-15T15:37:15.517Z,97825.70
2017-11-15T15:39:41.606Z,97821.89
2017-11-15T15:42:07.784Z,97824.66
2017-11-15T15:44:33.929Z,97824.14
2017-11-15T15:47:00.104Z,97823.52
2017-11-15T15:49:26.227Z,97827.70
2017-11-15T15:51:52.375Z,97826.86
2017-11-15T15:54:18.865Z,97830.31
2017-11-15T15:56:45.056Z,97832.98
2017-11-15T15:59:11.302Z,97834.61
2017-11-15T16:01:37.468Z,97838.48
2017-11-15T16:04:03.592Z,97837.17
2017-11-15T16:06:29.717Z,97840.88
2017-11-15T16:08:55.805Z,97841.37
2017-11-15T16:11:22.601Z,97838.21
2017-11-15T16:13:48.838Z,97835.73
2017-11-15T16:16:15.062Z,97842.89
2017-11-15T16:18:41.236Z,97842.38
2017-11-15T16:21:07.503Z,97843.11
2017-11-15T16:23:34.081Z,97836.19
2017-11-15T16:26:00.272Z,97832.48
2017-11-15T16:28:26.458Z,97839.44
2017-11-15T16:30:52.690Z,97839.81
2017-11-15T16:33:18.986Z,97838.11
2017-11-15T16:35:45.773Z,97837.64
2017-11-15T16:38:12.052Z,97841.91
2017-11-15T16:40:38.309Z,97838.16
2017-11-15T16:43:04.562Z,97838.26
2017-11-15T16:45:30.824Z,97838.26
2017-11-15T16:47:57.448Z,97837.32
2017-11-15T16:50:23.705Z,97838.88
2017-11-15T16:52:50.123Z,97836.41
2017-11-15T16:55:16.750Z,97825.92
2017-11-15T16:57:42.933Z,97824.64
2017-11-15T17:00:09.140Z,97822.66
2017-11-15T17:02:35.695Z,97824.27
2017-11-15T17:05:01.975Z,97826.36
2017-11-15T17:07:28.250Z,97835.62
2017-11-15T17:09:54.824Z,97842.64
2017-11-15T17:12:21.077Z,97839.95
2017-11-15T17:14:47.654Z,97841.52
2017-11-15T17:17:13.850Z,97840.58
2017-11-15T17:19:40.059Z,97839.27
2017-11-15T17:22:06.224Z,97837.98
2017-11-15T17:24:32.503Z,97837.84
2017-11-15T17:26:59.351Z,97839.34
2017-11-15T17:29:26.147Z,97834.17
2017-11-15T17:31:52.369Z,97834.70
2017-11-15T17:34:18.893Z,97838.64
2017-11-15T17:36:45.076Z,97832.15
2017-11-15T17:39:11.581Z,97831.40
2017-11-15T17:41:37.851Z,97837.34
2017-11-15T17:44:04.166Z,97832.10
2017-11-15T17:46:30.739Z,97836.73
2017-11-15T17:48:56.958Z,97838.55
2017-11-15T17:51:23.379Z,97836.12
2017-11-15T17:53:49.617Z,97835.27
2017-11-15T17:56:15.837Z,97827.55
2017-11-15T17:58:42.513Z,97827.16
2017-11-15T18:01:09.659Z,97834.51
2017-11-15T18:03:35.937Z,97834.06
2017-11-15T18:06:02.262Z,97825.95
2017-11-15T18:08:28.661Z,97808.61
2017-11-15T18:10:55.341Z,97827.31
2017-11-15T18:13:21.691Z,97827.74
2017-11-15T18:15:48.051Z,97830.72
2017-11-15T18:18:14.667Z,97825.55
2017-11-15T18:20:40.845Z,97825.38
2017-11-15T18:23:07.182Z,97824.28
2017-11-15T18:25:34.909Z,97810.15
2017-11-15T18:28:01.178Z,97830.50
2017-11-15T18:30:27.684Z,97827.67
2017-11-15T18:32:53.958Z,97831.32
2017-11-15T18:35:20.255Z,97832.02
2017-11-15T18:37:47.028Z,97828.68
2017-11-15T18:40:13.342Z,97831.23
2017-11-15T18:42:39.581Z,97831.63
2017-11-15T18:45:06.369Z,97821.66
2017-11-15T18:47:32.550Z,97838.46
2017-11-15T18:49:58.671Z,97833.20
2017-11-15T18:52:24.798Z,97840.55
2017-11-15T18:54:50.962Z,97842.11
2017-11-15T18:57:17.517Z,97842.63
2017-11-15T18:59:43.746Z,97844.91
2017-11-15T19:02:10.155Z,97836.03
2017-11-15T19:04:36.444Z,97824.16
2017-11-15T19:07:02.757Z,97829.93
2017-11-15T19:12:25.429Z,97825.34
2017-11-15T19:14:52.097Z,97834.33
2017-11-15T19:17:18.439Z,97837.49
2017-11-15T19:19:45.651Z,97834.61
2017-11-15T19:22:11.988Z,97829.98
2017-11-15T19:24:38.358Z,97828.47
2017-11-15T19:27:06.741Z,97834.85
2017-11-15T19:29:33.267Z,97823.09
2017-11-15T19:31:59.709Z,97817.48
2017-11-15T19:34:26.141Z,97825.13
2017-11-15T19:36:52.560Z,97818.51
2017-11-15T19:39:19.313Z,97824.64
2017-11-15T19:41:45.898Z,97822.94
2017-11-15T19:44:12.344Z,97825.86
2017-11-15T19:46:49.793Z,97825.28
2017-11-15T19:49:16.462Z,97826.31
2017-11-15T19:51:43.244Z,97823.45
2017-11-15T19:54:09.870Z,97828.22
2017-11-15T19:56:38.391Z,97827.58
2017-11-15T19:59:05.142Z,97822.59
2017-11-15T20:01:31.507Z,97820.33
2017-11-15T20:03:57.870Z,97827.58
2017-11-15T20:06:24.642Z,97823.66
2017-11-15T20:08:51.050Z,97816.68
2017-11-15T20:11:17.433Z,97822.72
2017-11-15T20:13:43.887Z,97821.78
2017-11-15T20:16:10.313Z,97818.74
2017-11-15T20:18:37.108Z,97818.17
2017-11-15T20:21:03.778Z,97809.36
2017-11-15T20:23:30.228Z,97817.41
2017-11-15T20:25:56.724Z,97810.36
2017-11-15T20:28:23.852Z,97807.66
2017-11-15T20:30:50.717Z,97808.45
2017-11-15T20:33:17.200Z,97805.63
2017-11-15T20:35:43.724Z,97808.72
2017-11-15T20:38:14.133Z,97815.34
2017-11-15T20:40:41.019Z,97812.06
2017-11-15T20:43:07.397Z,97813.34
2017-11-15T20:45:33.724Z,97814.28
2017-11-15T20:48:00.901Z,97812.06
2017-11-15T20:50:27.606Z,97807.97
2017-11-15T20:52:53.898Z,97804.02
2017-11-15T20:55:20.180Z,97800.25
2017-11-15T20:57:46.962Z,97805.23
2017-11-15T21:00:13.300Z,97806.27
2017-11-15T21:02:39.527Z,97804.86
2017-11-15T21:05:06.117Z,97800.97
2017-11-15T21:07:32.523Z,97800.59
2017-11-15T21:09:58.985Z,97803.00
2017-11-15T21:12:25.944Z,97804.14
2017-11-15T21:14:52.448Z,97794.04
2017-11-15T21:17:18.857Z,97799.45
2017-11-15T21:19:45.606Z,97796.95
2017-11-15T21:22:12.047Z,97787.80
2017-11-15T21:24:38.292Z,97788.22
2017-11-15T21:27:04.946Z,97788.24
2017-11-15T21:29:31.146Z,97793.98
2017-11-15T21:31:57.420Z,97782.32
2017-11-15T21:34:24.001Z,97790.77
2017-11-15T21:36:50.291Z,97789.78
2017-11-15T21:39:16.571Z,97790.42
2017-11-15T21:41:43.128Z,97788.50
2017-11-15T21:44:09.387Z,97786.52
2017-11-15T21:46:35.616Z,97781.93
2017-11-15T21:49:02.236Z,97792.98
2017-11-15T21:51:28.372Z,97787.06
2017-11-15T21:53:54.542Z,97786.74
2017-11-15T21:56:21.191Z,97782.55
2017-11-15T21:58:47.369Z,97780.84
2017-11-15T22:01:13.593Z,97777.87
2017-11-15T22:03:40.104Z,97782.22
2017-11-15T22:06:06.272Z,97783.11
2017-11-15T22:08:32.443Z,97777.61
2017-11-15T22:10:58.626Z,97783.91
2017-11-15T22:13:24.798Z,97780.55
2017-11-15T22:15:51.381Z,97783.05
2017-11-15T22:18:17.590Z,97779.08
2017-11-15T22:20:43.682Z,97782.58
2017-11-15T22:23:09.906Z,97792.50
2017-11-15T22:25:35.997Z,97784.66
2017-11-15T22:28:02.537Z,97779.80
2017-11-15T22:30:28.675Z,97778.38
2017-11-15T22:32:54.825Z,97780.35
2017-11-15T22:35:21.394Z,97779.83
2017-11-15T22:37:47.550Z,97774.23
2017-11-15T22:40:13.754Z,97775.84
2017-11-15T22:42:39.970Z,97772.59
2017-11-15T22:45:06.229Z,97776.61
2017-11-15T22:47:32.773Z,97776.03
2017-11-15T22:49:58.888Z,97770.39
2017-11-15T22:52:25.772Z,97761.85
2017-11-15T22:54:51.977Z,97759.98
2017-11-15T22:57:18.100Z,97762.84
2017-11-15T22:59:44.689Z,97760.90
2017-11-15T23:02:10.906Z,97753.55
2017-11-15T23:04:37.110Z,97759.69
2017-11-15T23:07:03.465Z,97766.30
2017-11-15T23:09:29.536Z,97760.08
2017-11-15T23:11:56.039Z,97755.23
2017-11-15T23:14:22.190Z,97756.88
2017-11-15T23:16:48.349Z,97754.13
2017-11-15T23:19:14.574Z,97755.35
2017-11-15T23:21:40.699Z,97740.58
2017-11-15T23:24:07.179Z,97743.28
2017-11-15T23:26:33.344Z,97739.80
2017-11-15T23:28:59.521Z,97736.23
2017-11-15T23:31:25.721Z,97730.46
2017-11-15T23:33:51.913Z,97729.48
2017-11-15T23:36:18.534Z,97734.80
2017-11-15T23:38:45.553Z,97732.63
2017-11-15T23:41:11.693Z,97733.08
2017-11-15T23:43:37.857Z,97726.44
2017-11-15T23:46:04.087Z,97730.73
2017-11-15T23:48:30.855Z,97727.40
2017-11-15T23:50:57.032Z,97725.55
2017-11-15T23:53:23.115Z,97728.87
2017-11-15T23:55:49.659Z,97733.31
2017-11-15T23:58:15.806Z,97729.58
